Time;durP1;ratioP1;P1;durP2;ratioP2;P2;SDS_P1;SDS_P2;PMS_P1;PMS_P2;Temp;Humidity;BMP_temperature;BMP_pressure;BME280_temperature;BME280_humidity;BME280_pressure;Samples;Min_cycle;Max_cycle;Signal;HPM_P1;HPM_P2
2023/09/23 00:01:44;;;;;;;10.45;7.40;;;12.90;99.90;;;;;;4985775;28;20043;-55
2023/09/23 00:04:10;;;;;;;10.15;7.60;;;12.80;99.90;;;;;;4986183;28;20042;-55
2023/09/23 00:06:35;;;;;;;10.90;7.07;;;12.90;99.90;;;;;;4985982;28;20182;-54
2023/09/23 00:09:02;;;;;;;8.35;7.10;;;12.80;99.90;;;;;;4986872;28;20059;-54
2023/09/23 00:11:28;;;;;;;9.90;7.18;;;12.90;99.90;;;;;;4986399;28;20042;-54
2023/09/23 00:13:54;;;;;;;9.18;7.45;;;12.90;99.90;;;;;;4985543;28;20060;-54
2023/09/23 00:16:21;;;;;;;8.98;6.80;;;12.90;99.90;;;;;;4985918;28;20208;-53
2023/09/23 00:18:47;;;;;;;9.05;6.55;;;12.80;99.90;;;;;;4985467;28;20401;-52
2023/09/23 00:21:13;;;;;;;6.90;5.55;;;12.80;99.90;;;;;;4987145;28;20050;-54
2023/09/23 00:23:39;;;;;;;8.23;5.35;;;12.80;99.90;;;;;;4986973;28;20038;-55
2023/09/23 00:26:06;;;;;;;6.53;4.90;;;12.80;99.90;;;;;;4985976;28;20042;-54
2023/09/23 00:28:32;;;;;;;5.63;4.03;;;12.80;99.90;;;;;;4985255;28;20050;-53
2023/09/23 00:31:07;;;;;;;4.82;3.40;;;12.70;99.90;;;;;;4991221;28;20041;-54
2023/09/23 00:33:36;;;;;;;7.05;3.40;;;12.80;99.90;;;;;;4989466;28;20047;-54
2023/09/23 00:36:01;;;;;;;4.80;3.15;;;12.80;99.90;;;;;;4985489;28;20046;-53
2023/09/23 00:38:27;;;;;;;5.03;2.95;;;12.70;99.90;;;;;;4986856;28;20182;-54
2023/09/23 00:40:53;;;;;;;4.03;2.90;;;12.80;99.90;;;;;;4984421;28;20057;-53
2023/09/23 00:43:18;;;;;;;4.15;3.13;;;12.80;99.90;;;;;;4985140;28;20049;-54
2023/09/23 00:45:48;;;;;;;5.65;3.20;;;12.50;99.90;;;;;;4985048;28;20054;-52
2023/09/23 00:48:20;;;;;;;6.00;3.00;;;12.50;99.90;;;;;;4985338;28;20133;-55
2023/09/23 00:50:47;;;;;;;4.15;2.30;;;12.40;99.90;;;;;;4985817;28;20042;-54
2023/09/23 00:53:14;;;;;;;5.32;2.55;;;12.40;99.90;;;;;;4986874;28;20034;-53
2023/09/23 00:55:46;;;;;;;3.97;2.40;;;12.40;99.90;;;;;;4985175;28;20046;-55
2023/09/23 00:58:19;;;;;;;3.20;2.20;;;12.60;99.90;;;;;;4986697;28;20041;-55
2023/09/23 01:00:44;;;;;;;2.92;1.92;;;12.30;99.90;;;;;;4986787;28;20054;-53
2023/09/23 01:03:11;;;;;;;3.50;2.30;;;12.40;99.90;;;;;;4985331;28;20042;-55
2023/09/23 01:05:36;;;;;;;4.93;2.40;;;12.40;99.90;;;;;;4985518;28;20497;-55
2023/09/23 01:08:04;;;;;;;4.38;2.60;;;12.30;99.90;;;;;;4985213;28;20054;-52
2023/09/23 01:10:30;;;;;;;4.18;2.90;;;12.30;99.90;;;;;;4985379;28;20054;-52
2023/09/23 01:12:57;;;;;;;3.95;2.40;;;12.40;99.90;;;;;;4986255;28;20057;-54
2023/09/23 01:15:25;;;;;;;4.82;2.70;;;12.30;99.90;;;;;;5041221;23;20060;-54
2023/09/23 01:17:53;;;;;;;3.85;2.60;;;12.30;99.90;;;;;;5001452;28;20125;-54
2023/09/23 01:20:23;;;;;;;4.18;2.67;;;12.30;99.90;;;;;;5003924;28;20065;-55
2023/09/23 01:22:48;;;;;;;4.22;2.42;;;12.30;99.90;;;;;;5005256;28;20092;-54
2023/09/23 01:25:14;;;;;;;4.75;2.60;;;12.30;99.90;;;;;;5005150;28;20037;-49
2023/09/23 01:27:40;;;;;;;5.03;3.17;;;12.20;99.90;;;;;;5003946;28;20050;-52
2023/09/23 01:30:07;;;;;;;4.88;3.47;;;12.20;99.90;;;;;;5000278;28;20084;-52
2023/09/23 01:32:42;;;;;;;5.68;3.40;;;12.20;99.90;;;;;;4996747;28;20480;-55
2023/09/23 01:35:09;;;;;;;;;;;12.20;99.90;;;;;;5005287;28;20042;-57
2023/09/23 01:37:35;;;;;;;6.07;3.13;;;12.20;99.90;;;;;;5004033;28;19921;-54
2023/09/23 01:40:01;;;;;;;5.88;3.72;;;12.20;99.90;;;;;;4992474;28;20666;-53
2023/09/23 01:42:28;;;;;;;5.07;3.05;;;12.20;99.90;;;;;;4983944;28;20174;-53
2023/09/23 01:44:54;;;;;;;5.78;3.05;;;12.50;99.90;;;;;;4984338;28;20046;-54
2023/09/23 01:47:21;;;;;;;6.40;2.78;;;12.20;99.90;;;;;;4985240;28;20123;-54
2023/09/23 01:49:47;;;;;;;4.45;2.78;;;12.20;99.90;;;;;;4985406;28;20779;-54
2023/09/23 01:52:16;;;;;;;4.03;2.40;;;12.20;99.90;;;;;;4985461;28;20038;-53
2023/09/23 01:54:44;;;;;;;3.63;2.03;;;12.20;99.90;;;;;;4984809;28;20050;-54
2023/09/23 01:57:16;;;;;;;4.47;2.30;;;12.20;99.90;;;;;;4983648;28;20178;-53
2023/09/23 01:59:41;;;;;;;6.63;2.40;;;13.30;99.90;;;;;;4984824;28;20057;-55
2023/09/23 02:02:09;;;;;;;4.80;2.20;;;12.10;99.90;;;;;;4982809;28;20740;-53
2023/09/23 02:04:37;;;;;;;6.55;2.40;;;12.20;99.90;;;;;;4983197;28;20052;-54
2023/09/23 02:07:03;;;;;;;5.43;2.13;;;12.10;99.90;;;;;;4984566;28;20090;-54
2023/09/23 02:09:30;;;;;;;6.22;2.22;;;12.10;99.90;;;;;;4984271;28;20112;-54
2023/09/23 02:11:56;;;;;;;4.43;2.00;;;12.10;99.90;;;;;;4983469;28;20077;-53
2023/09/23 02:14:21;;;;;;;5.75;2.25;;;12.10;99.90;;;;;;4983567;28;20707;-55
2023/09/23 02:16:47;;;;;;;4.43;2.00;;;12.10;99.90;;;;;;4985118;28;20436;-55
2023/09/23 02:19:13;;;;;;;4.07;2.25;;;12.20;99.90;;;;;;4983672;28;20559;-55
2023/09/23 02:21:38;;;;;;;3.97;2.20;;;12.90;99.90;;;;;;4984428;28;20096;-54
2023/09/23 02:24:06;;;;;;;3.05;2.00;;;12.00;99.90;;;;;;4984348;28;20133;-53
2023/09/23 02:26:32;;;;;;;3.35;1.92;;;12.10;99.90;;;;;;4982573;28;20050;-54
2023/09/23 02:28:57;;;;;;;3.75;2.00;;;13.20;99.90;;;;;;4983338;28;20556;-53
2023/09/23 02:31:24;;;;;;;3.15;1.92;;;11.90;99.90;;;;;;4993284;28;20049;-53
2023/09/23 02:33:49;;;;;;;3.90;2.00;;;12.00;99.90;;;;;;4984375;28;20593;-53
2023/09/23 02:36:15;;;;;;;2.65;1.73;;;12.10;99.90;;;;;;4992521;28;20125;-54
2023/09/23 02:38:44;;;;;;;3.15;1.63;;;11.90;99.90;;;;;;5004023;28;20522;-52
2023/09/23 02:41:09;;;;;;;3.25;1.60;;;11.90;99.90;;;;;;5002817;28;20403;-55
2023/09/23 02:43:36;;;;;;;3.25;1.77;;;12.00;99.90;;;;;;5002996;28;20038;-55
2023/09/23 02:46:02;;;;;;;3.17;1.60;;;12.00;99.90;;;;;;5003187;28;20701;-54
2023/09/23 02:48:28;;;;;;;2.28;1.42;;;12.00;99.90;;;;;;5003591;28;20125;-54
2023/09/23 02:50:58;;;;;;;2.17;1.45;;;12.00;99.90;;;;;;5004000;28;20041;-55
2023/09/23 02:53:24;;;;;;;2.83;1.40;;;11.90;99.90;;;;;;5003701;28;20092;-54
2023/09/23 02:56:03;;;;;;;3.28;1.40;;;11.90;99.90;;;;;;5002490;28;20063;-55
2023/09/23 02:58:29;;;;;;;3.58;1.77;;;12.00;99.90;;;;;;5004161;28;20134;-53
2023/09/23 03:00:57;;;;;;;5.15;2.00;;;12.00;99.90;;;;;;5004497;28;20120;-55
2023/09/23 03:03:27;;;;;;;4.40;1.85;;;11.90;99.90;;;;;;5003527;28;20041;-51
2023/09/23 03:05:57;;;;;;;4.28;2.05;;;12.20;99.90;;;;;;5003068;28;20125;-54
2023/09/23 03:08:23;;;;;;;3.13;2.30;;;11.90;99.90;;;;;;5003101;28;20049;-51
2023/09/23 03:10:52;;;;;;;3.60;2.47;;;11.90;99.90;;;;;;5007719;28;20073;-53
2023/09/23 03:13:20;;;;;;;3.90;2.67;;;12.00;99.90;;;;;;5008112;28;20124;-54
2023/09/23 03:15:52;;;;;;;4.25;3.15;;;12.00;99.90;;;;;;4987225;28;20054;-55
2023/09/23 03:18:27;;;;;;;4.60;3.40;;;11.90;99.90;;;;;;4988516;28;20558;-52
2023/09/23 03:20:57;;;;;;;6.05;3.60;;;12.20;99.90;;;;;;4987955;28;20185;-54
2023/09/23 03:23:23;;;;;;;4.55;3.47;;;11.90;99.90;;;;;;4987631;28;20062;-53
2023/09/23 03:25:51;;;;;;;5.30;3.80;;;11.80;99.90;;;;;;4987600;28;20042;-54
2023/09/23 03:28:17;;;;;;;7.55;4.25;;;11.80;99.90;;;;;;4988341;28;20043;-54
2023/09/23 03:30:44;;;;;;;8.02;4.72;;;12.00;99.90;;;;;;4980822;28;20043;-54
2023/09/23 03:33:12;;;;;;;6.93;4.50;;;11.80;99.90;;;;;;4975070;28;20492;-54
2023/09/23 03:35:38;;;;;;;8.45;4.82;;;11.80;99.90;;;;;;4968129;28;20065;-55
2023/09/23 03:38:04;;;;;;;5.85;4.28;;;11.80;99.90;;;;;;4967915;28;20046;-54
2023/09/23 03:40:31;;;;;;;6.38;4.53;;;11.80;99.90;;;;;;4967400;28;20404;-54
2023/09/23 03:42:57;;;;;;;7.43;5.22;;;11.80;99.90;;;;;;4967889;28;20066;-52
2023/09/23 03:45:23;;;;;;;5.55;4.50;;;11.80;99.90;;;;;;4967694;28;20047;-54
2023/09/23 03:47:49;;;;;;;6.07;5.07;;;11.70;99.90;;;;;;4967586;28;20058;-53
2023/09/23 03:50:15;;;;;;;8.57;5.13;;;11.70;99.90;;;;;;4983567;28;20038;-54
2023/09/23 03:52:42;;;;;;;6.20;5.28;;;11.70;99.90;;;;;;4967290;28;20062;-55
2023/09/23 03:55:09;;;;;;;7.43;5.20;;;11.80;99.90;;;;;;4968058;28;20042;-54
2023/09/23 03:57:35;;;;;;;6.60;5.28;;;11.60;99.90;;;;;;4966530;28;20081;-54
2023/09/23 04:00:06;;;;;;;6.55;5.88;;;11.50;99.90;;;;;;4968345;28;20078;-55
2023/09/23 04:02:33;;;;;;;7.05;6.22;;;11.50;99.90;;;;;;4967623;28;20051;-53
2023/09/23 04:04:58;;;;;;;7.13;6.05;;;11.60;99.90;;;;;;4966914;28;20050;-55
2023/09/23 04:07:24;;;;;;;7.50;6.38;;;11.60;99.90;;;;;;4967721;28;20452;-55
2023/09/23 04:09:49;;;;;;;7.60;6.70;;;11.40;99.90;;;;;;4968046;28;20035;-54
2023/09/23 04:12:17;;;;;;;8.00;6.30;;;11.40;99.90;;;;;;4965760;28;20077;-53
2023/09/23 04:14:42;;;;;;;7.97;6.72;;;11.40;99.90;;;;;;4978553;28;20090;-53
2023/09/23 04:17:08;;;;;;;7.97;6.38;;;11.40;99.90;;;;;;4987282;28;20088;-54
2023/09/23 04:19:34;;;;;;;8.43;6.43;;;11.40;99.90;;;;;;4984994;28;20448;-53
2023/09/23 04:21:59;;;;;;;11.07;7.05;;;11.40;99.90;;;;;;4986224;28;20061;-53
2023/09/23 04:24:25;;;;;;;8.85;6.93;;;11.40;99.90;;;;;;4986787;28;20561;-53
2023/09/23 04:26:53;;;;;;;8.95;6.85;;;11.40;99.90;;;;;;4986432;28;20047;-53
2023/09/23 04:29:20;;;;;;;9.30;7.13;;;11.30;99.90;;;;;;5002428;28;20073;-53
2023/09/23 04:31:46;;;;;;;8.65;7.25;;;11.30;99.90;;;;;;4994948;28;20096;-52
2023/09/23 04:34:13;;;;;;;13.18;8.15;;;11.30;99.90;;;;;;4967937;28;20066;-52
2023/09/23 04:36:39;;;;;;;9.23;8.20;;;11.20;99.90;;;;;;4984355;28;20081;-53
2023/09/23 04:39:06;;;;;;;13.45;8.50;;;11.40;99.90;;;;;;4985530;28;20092;-54
2023/09/23 04:41:32;;;;;;;9.50;8.50;;;11.20;99.90;;;;;;4984460;28;20046;-52
2023/09/23 04:43:58;;;;;;;10.80;9.40;;;11.50;99.90;;;;;;4986444;28;20117;-54
2023/09/23 04:46:24;;;;;;;9.55;8.40;;;11.80;99.90;;;;;;4986132;28;20050;-54
2023/09/23 04:48:50;;;;;;;12.07;9.10;;;11.30;99.90;;;;;;4985074;28;20125;-54
2023/09/23 04:51:17;;;;;;;10.25;8.88;;;11.20;99.90;;;;;;4986180;28;20092;-54
2023/09/23 04:53:43;;;;;;;12.70;9.60;;;11.20;99.90;;;;;;4986152;28;20114;-54
2023/09/23 04:56:16;;;;;;;11.98;9.52;;;11.20;99.90;;;;;;4984832;28;20122;-53
2023/09/23 04:58:42;;;;;;;11.18;9.75;;;11.10;99.90;;;;;;4986448;28;20621;-54
2023/09/23 05:01:09;;;;;;;10.57;9.48;;;11.10;99.90;;;;;;4984832;28;20078;-52
2023/09/23 05:03:36;;;;;;;13.63;10.15;;;11.10;99.90;;;;;;4985042;28;20038;-54
2023/09/23 05:06:02;;;;;;;13.65;9.98;;;11.10;99.90;;;;;;4985370;28;20050;-54
2023/09/23 05:08:28;;;;;;;12.23;10.27;;;11.10;99.90;;;;;;4985765;28;20396;-54
2023/09/23 05:10:56;;;;;;;12.25;10.07;;;10.80;99.90;;;;;;4985556;28;20042;-53
2023/09/23 05:13:23;;;;;;;11.35;9.80;;;10.90;99.90;;;;;;4985411;28;20050;-55
2023/09/23 05:15:49;;;;;;;12.45;10.50;;;10.90;99.90;;;;;;4986447;28;20146;-55
2023/09/23 05:18:14;;;;;;;13.13;10.68;;;10.90;99.90;;;;;;4985504;28;20133;-55
2023/09/23 05:20:40;;;;;;;13.15;10.55;;;10.90;99.90;;;;;;5000526;28;20085;-54
2023/09/23 05:23:06;;;;;;;14.10;11.32;;;10.80;99.90;;;;;;5001916;28;20506;-54
2023/09/23 05:25:33;;;;;;;12.25;10.95;;;10.80;99.90;;;;;;5002705;28;20046;-55
2023/09/23 05:27:59;;;;;;;14.38;11.60;;;10.80;99.90;;;;;;5004812;28;20077;-54
2023/09/23 05:30:27;;;;;;;13.85;12.02;;;10.90;99.90;;;;;;4998151;28;20069;-55
2023/09/23 05:32:53;;;;;;;12.85;11.02;;;10.90;99.90;;;;;;4987024;28;20042;-55
2023/09/23 05:35:18;;;;;;;13.07;11.68;;;10.80;99.90;;;;;;4984859;28;20054;-54
2023/09/23 05:37:44;;;;;;;12.77;11.48;;;10.80;99.90;;;;;;4984747;28;20038;-53
2023/09/23 05:42:51;;;;;;;14.60;11.90;;;10.90;99.90;;;;;;4987113;28;20408;-53
2023/09/23 05:45:17;;;;;;;14.10;12.15;;;10.90;99.90;;;;;;4991644;28;20053;-54
2023/09/23 05:47:46;;;;;;;14.23;11.65;;;10.80;99.90;;;;;;5004599;28;20085;-54
2023/09/23 05:50:12;;;;;;;16.52;12.30;;;10.90;99.90;;;;;;5004464;28;20189;-51
2023/09/23 05:52:38;;;;;;;15.25;11.95;;;10.90;99.90;;;;;;5004911;28;20666;-54
2023/09/23 05:55:04;;;;;;;15.75;11.40;;;11.00;99.90;;;;;;5002801;28;20048;-52
2023/09/23 05:57:30;;;;;;;14.43;12.18;;;11.00;99.90;;;;;;5005665;28;20176;-53
2023/09/23 05:59:56;;;;;;;13.18;11.77;;;11.00;99.90;;;;;;5005054;28;20041;-54
2023/09/23 06:02:21;;;;;;;14.98;12.45;;;11.00;99.90;;;;;;5003324;28;20041;-53
2023/09/23 06:04:47;;;;;;;13.25;11.85;;;11.00;99.90;;;;;;5003761;28;20077;-54
2023/09/23 06:07:13;;;;;;;14.32;12.65;;;11.10;99.90;;;;;;5004113;28;20104;-54
2023/09/23 06:09:43;;;;;;;14.70;12.73;;;11.10;99.90;;;;;;5004301;28;20204;-53
2023/09/23 06:12:09;;;;;;;14.50;12.98;;;11.40;99.90;;;;;;5002856;28;20042;-53
2023/09/23 06:14:34;;;;;;;15.90;13.43;;;11.30;99.90;;;;;;4985931;28;20046;-55
2023/09/23 06:17:00;;;;;;;19.60;14.77;;;11.10;99.90;;;;;;5003712;28;20104;-52
2023/09/23 06:19:25;;;;;;;22.85;14.95;;;11.20;99.90;;;;;;5004178;28;20074;-53
2023/09/23 06:21:51;;;;;;;20.20;15.57;;;11.10;99.90;;;;;;5003622;28;20473;-53
2023/09/23 06:24:17;;;;;;;19.20;15.25;;;11.30;99.90;;;;;;5003476;28;20042;-54
2023/09/23 06:26:42;;;;;;;19.13;16.70;;;11.20;99.90;;;;;;5003079;28;20057;-53
2023/09/23 06:29:09;;;;;;;20.88;16.95;;;11.40;99.90;;;;;;5004057;28;20096;-55
2023/09/23 06:31:35;;;;;;;21.67;18.33;;;11.20;99.90;;;;;;4997642;28;20054;-54
2023/09/23 06:34:00;;;;;;;23.52;18.17;;;11.30;99.90;;;;;;4984146;28;20034;-56
2023/09/23 06:36:26;;;;;;;23.27;18.25;;;11.20;99.90;;;;;;4983828;28;20073;-55
2023/09/23 06:38:52;;;;;;;20.42;17.67;;;11.20;99.90;;;;;;4982516;28;20042;-56
2023/09/23 06:41:18;;;;;;;20.95;18.55;;;11.30;99.90;;;;;;4988932;28;20053;-55
2023/09/23 06:43:43;;;;;;;24.65;19.83;;;12.60;99.90;;;;;;4992962;28;20066;-54
2023/09/23 06:46:11;;;;;;;27.13;21.27;;;11.40;99.90;;;;;;4990064;28;20772;-54
2023/09/23 06:48:37;;;;;;;24.58;20.88;;;11.40;99.90;;;;;;4993293;28;20439;-52
2023/09/23 06:51:03;;;;;;;27.38;22.02;;;11.50;99.90;;;;;;4993870;28;20080;-55
2023/09/23 06:53:29;;;;;;;28.05;22.17;;;11.50;99.90;;;;;;4991478;28;20141;-53
2023/09/23 06:55:56;;;;;;;27.45;23.33;;;11.90;99.90;;;;;;4990797;28;20058;-53
2023/09/23 06:58:22;;;;;;;27.17;22.45;;;11.50;99.90;;;;;;4990137;28;20550;-55
2023/09/23 07:00:47;;;;;;;26.27;22.63;;;11.40;99.90;;;;;;4993936;28;20090;-54
2023/09/23 07:03:13;;;;;;;28.38;24.50;;;11.70;99.90;;;;;;4994069;28;20534;-53
2023/09/23 07:05:41;;;;;;;31.63;24.67;;;11.50;99.90;;;;;;4992270;28;20365;-50
2023/09/23 07:08:07;;;;;;;33.90;24.85;;;11.50;99.90;;;;;;4994401;28;20093;-52
2023/09/23 07:10:38;;;;;;;30.50;25.75;;;11.60;99.90;;;;;;5000398;28;20046;-52
2023/09/23 07:13:04;;;;;;;29.52;25.45;;;11.60;99.90;;;;;;4985932;28;20066;-54
2023/09/23 07:15:40;;;;;;;30.27;25.17;;;11.60;99.90;;;;;;4993069;28;20054;-52
2023/09/23 07:18:07;;;;;;;34.25;26.83;;;11.60;99.90;;;;;;5003990;28;20049;-55
2023/09/23 07:20:33;;;;;;;30.55;25.52;;;11.60;99.90;;;;;;5003053;28;20046;-55
2023/09/23 07:22:59;;;;;;;32.60;26.58;;;11.70;99.90;;;;;;5002725;28;20132;-54
2023/09/23 07:25:26;;;;;;;33.80;27.30;;;11.60;99.90;;;;;;5003353;28;20046;-52
2023/09/23 07:27:53;;;;;;;36.75;28.83;;;11.70;99.90;;;;;;5001772;28;20049;-53
2023/09/23 07:30:18;;;;;;;33.72;27.00;;;11.80;99.90;;;;;;5003329;28;20042;-55
2023/09/23 07:32:44;;;;;;;35.22;27.85;;;11.80;99.90;;;;;;4990150;28;20042;-54
2023/09/23 07:35:10;;;;;;;35.00;27.10;;;11.90;99.90;;;;;;4995360;28;20042;-53
2023/09/23 07:37:35;;;;;;;31.20;26.73;;;11.90;99.90;;;;;;4984421;28;20460;-54
2023/09/23 07:40:01;;;;;;;33.53;26.40;;;12.00;99.90;;;;;;4991713;28;20084;-54
2023/09/23 07:42:27;;;;;;;29.42;25.85;;;12.00;99.90;;;;;;5003742;28;20373;-53
2023/09/23 07:44:53;;;;;;;30.42;26.42;;;12.20;99.90;;;;;;5001130;28;20044;-54
2023/09/23 07:47:18;;;;;;;34.55;26.60;;;12.80;99.90;;;;;;5003784;28;20049;-53
2023/09/23 07:49:44;;;;;;;30.90;26.30;;;12.40;99.90;;;;;;4990687;28;20074;-55
2023/09/23 07:52:10;;;;;;;30.67;25.85;;;12.50;99.90;;;;;;4984168;28;20534;-54
2023/09/23 07:54:38;;;;;;;30.20;25.52;;;12.70;99.90;;;;;;4983612;28;20046;-54
2023/09/23 07:57:04;;;;;;;29.17;25.70;;;12.70;99.90;;;;;;4995124;28;20081;-53
2023/09/23 07:59:29;;;;;;;26.65;23.65;;;12.90;99.90;;;;;;5006641;28;20535;-50
2023/09/23 08:01:55;;;;;;;28.20;23.90;;;13.10;99.90;;;;;;5006934;28;20933;-53
2023/09/23 08:04:21;;;;;;;28.23;24.38;;;13.40;99.90;;;;;;5006244;28;20073;-54
2023/09/23 08:06:46;;;;;;;24.73;22.13;;;13.20;99.90;;;;;;5006712;28;20046;-54
2023/09/23 08:09:12;;;;;;;25.60;22.85;;;13.10;99.90;;;;;;5006812;28;20417;-55
2023/09/23 08:11:37;;;;;;;25.75;22.95;;;13.20;99.90;;;;;;5004721;28;20038;-52
2023/09/23 08:14:03;;;;;;;26.90;23.52;;;13.40;99.90;;;;;;5007174;28;20181;-54
2023/09/23 08:16:29;;;;;;;25.50;22.83;;;13.10;99.90;;;;;;4991698;28;20052;-54
2023/09/23 08:18:54;;;;;;;24.80;21.90;;;13.20;99.90;;;;;;5005070;28;20368;-54
2023/09/23 08:21:20;;;;;;;26.27;22.38;;;13.20;99.90;;;;;;5005344;28;20050;-54
2023/09/23 08:23:45;;;;;;;24.63;21.77;;;13.50;99.90;;;;;;4996047;28;20033;-54
2023/09/23 08:26:11;;;;;;;26.40;21.35;;;13.50;99.90;;;;;;4994338;28;20767;-52
2023/09/23 08:28:37;;;;;;;23.73;21.13;;;13.60;99.90;;;;;;4969368;28;20050;-52
2023/09/23 08:31:03;;;;;;;24.10;20.48;;;13.50;99.90;;;;;;4992610;28;20048;-53
2023/09/23 08:33:28;;;;;;;23.58;21.08;;;13.40;99.90;;;;;;5005192;28;20041;-53
2023/09/23 08:35:54;;;;;;;23.33;21.00;;;13.50;99.90;;;;;;5006346;28;20038;-51
2023/09/23 08:38:21;;;;;;;22.05;19.48;;;13.50;99.90;;;;;;5005481;28;20054;-54
2023/09/23 08:40:46;;;;;;;24.67;21.02;;;13.70;99.90;;;;;;5005273;28;20165;-54
2023/09/23 08:43:12;;;;;;;25.88;20.00;;;13.80;99.90;;;;;;5004708;28;20077;-54
2023/09/23 08:45:46;;;;;;;21.70;18.10;;;13.90;99.90;;;;;;4988003;28;20046;-51
2023/09/23 08:48:13;;;;;;;21.08;17.67;;;14.10;99.90;;;;;;5005620;28;20049;-53
2023/09/23 08:50:46;;;;;;;20.20;18.00;;;14.10;99.90;;;;;;5006042;28;20056;-53
2023/09/23 08:53:14;;;;;;;18.83;16.83;;;14.10;99.90;;;;;;5006665;28;20042;-54
2023/09/23 08:55:40;;;;;;;18.83;16.88;;;14.20;99.90;;;;;;5005027;28;20069;-55
2023/09/23 08:58:06;;;;;;;20.67;16.48;;;14.10;99.90;;;;;;4997466;28;20419;-54
2023/09/23 09:00:31;;;;;;;19.02;17.02;;;14.10;99.90;;;;;;4994220;28;20042;-55
2023/09/23 09:02:58;;;;;;;18.08;16.27;;;14.20;99.90;;;;;;4989066;28;20030;-56
2023/09/23 09:05:23;;;;;;;17.92;15.95;;;14.50;99.90;;;;;;4995089;28;20074;-55
2023/09/23 09:07:50;;;;;;;16.27;14.65;;;14.90;99.90;;;;;;4985760;28;20050;-55
2023/09/23 09:10:17;;;;;;;14.70;13.20;;;14.80;99.90;;;;;;4985012;28;20050;-56
2023/09/23 09:12:43;;;;;;;14.98;13.10;;;15.10;99.90;;;;;;4990277;28;20456;-60
2023/09/23 09:15:09;;;;;;;16.20;13.75;;;15.60;99.90;;;;;;4996289;28;20104;-56
2023/09/23 09:17:35;;;;;;;13.82;11.95;;;16.00;99.90;;;;;;4986319;28;20476;-55
2023/09/23 09:20:08;;;;;;;13.43;11.93;;;16.40;99.90;;;;;;4986074;28;20400;-55
2023/09/23 09:22:34;;;;;;;13.63;11.35;;;16.60;99.90;;;;;;4986321;28;20046;-54
2023/09/23 09:25:02;;;;;;;12.05;10.75;;;16.90;99.90;;;;;;4993857;28;20096;-55
2023/09/23 09:27:28;;;;;;;12.63;10.35;;;17.10;99.90;;;;;;4987161;28;20042;-55
2023/09/23 09:29:54;;;;;;;10.73;9.45;;;17.10;99.90;;;;;;4994853;28;20262;-56
2023/09/23 09:32:29;;;;;;;11.00;9.52;;;16.90;99.90;;;;;;4998122;28;20056;-55
2023/09/23 09:34:59;;;;;;;11.88;10.65;;;16.90;99.90;;;;;;4995571;28;20046;-55
2023/09/23 09:37:26;;;;;;;12.48;10.23;;;16.60;99.90;;;;;;4982567;28;20073;-54
2023/09/23 09:40:00;;;;;;;14.38;10.15;;;16.30;99.90;;;;;;4980713;28;20065;-55
2023/09/23 09:42:33;;;;;;;12.18;10.15;;;16.20;99.90;;;;;;4982158;28;20512;-55
2023/09/23 09:45:00;;;;;;;11.57;10.25;;;15.90;99.90;;;;;;4982825;28;20042;-55
2023/09/23 09:47:28;;;;;;;12.40;9.18;;;15.70;99.90;;;;;;4983753;28;20048;-55
2023/09/23 09:49:54;;;;;;;10.90;9.57;;;15.60;99.90;;;;;;4996641;28;20408;-56
2023/09/23 09:52:26;;;;;;;11.25;10.10;;;15.60;99.90;;;;;;5001877;28;20476;-54
2023/09/23 09:54:55;;;;;;;14.60;12.27;;;15.40;99.90;;;;;;4981322;28;20050;-48
2023/09/23 09:57:22;;;;;;;9.98;8.38;;;15.80;99.90;;;;;;4989676;28;20561;-55
2023/09/23 09:59:50;;;;;;;9.77;7.32;;;16.30;99.90;;;;;;4998011;28;20391;-55
2023/09/23 10:02:16;;;;;;;8.73;6.80;;;16.70;99.90;;;;;;4982503;28;20046;-55
2023/09/23 10:04:46;;;;;;;10.48;8.05;;;16.90;99.90;;;;;;4994062;28;20370;-57
2023/09/23 10:07:12;;;;;;;8.15;6.90;;;16.90;99.90;;;;;;4986983;28;20492;-55
2023/09/23 10:09:48;;;;;;;8.75;6.78;;;16.90;99.90;;;;;;4986457;28;20137;-56
2023/09/23 10:12:14;;;;;;;7.97;6.10;;;16.60;99.90;;;;;;5001391;28;20046;-56
2023/09/23 10:14:40;;;;;;;9.07;6.63;;;16.70;99.90;;;;;;5000837;28;20060;-55
2023/09/23 10:17:07;;;;;;;11.50;7.47;;;16.60;99.90;;;;;;5002096;28;20380;-56
2023/09/23 10:19:38;;;;;;;10.30;7.05;;;16.40;99.90;;;;;;4997435;28;20092;-58
2023/09/23 10:22:17;;;;;;;8.13;6.15;;;16.60;99.90;;;;;;4981083;28;20121;-54
2023/09/23 10:24:43;;;;;;;6.55;5.95;;;16.70;99.90;;;;;;4991394;28;20112;-55
2023/09/23 10:27:10;;;;;;;11.07;6.25;;;16.90;99.90;;;;;;5000424;28;20053;-56
2023/09/23 10:29:48;;;;;;;10.00;6.45;;;17.00;99.90;;;;;;5000514;28;20107;-52
2023/09/23 10:32:15;;;;;;;10.90;7.68;;;17.00;99.90;;;;;;5001568;28;20042;-55
2023/09/23 10:34:53;;;;;;;9.27;8.02;;;17.10;99.90;;;;;;5001736;28;20053;-55
2023/09/23 10:37:29;;;;;;;9.57;6.97;;;17.10;99.90;;;;;;5000890;28;20249;-51
2023/09/23 10:40:08;;;;;;;9.68;5.60;;;17.20;99.90;;;;;;5000147;28;20412;-55
2023/09/23 10:42:35;;;;;;;8.23;5.28;;;17.20;99.90;;;;;;4985980;28;20507;-53
2023/09/23 10:45:01;;;;;;;8.32;5.32;;;17.00;99.90;;;;;;4986353;28;20042;-56
2023/09/23 10:47:27;;;;;;;9.82;5.43;;;16.90;99.90;;;;;;5001608;28;20064;-55
2023/09/23 10:49:53;;;;;;;8.27;5.95;;;16.80;99.90;;;;;;4989023;28;20612;-54
2023/09/23 10:52:20;;;;;;;10.10;6.53;;;16.80;99.90;;;;;;4986518;28;20049;-55
2023/09/23 10:54:48;;;;;;;6.63;4.68;;;16.80;99.90;;;;;;4998536;28;20507;-54
2023/09/23 10:57:13;;;;;;;8.18;4.40;;;16.90;99.90;;;;;;4999711;28;20530;-57
2023/09/23 10:59:39;;;;;;;5.47;3.92;;;16.90;99.90;;;;;;4992488;28;20077;-55
2023/09/23 11:02:05;;;;;;;7.85;3.67;;;17.10;99.90;;;;;;4980820;28;20050;-54
2023/09/23 11:04:33;;;;;;;7.25;3.75;;;17.20;99.90;;;;;;4981171;28;20048;-56
2023/09/23 11:06:59;;;;;;;7.32;3.90;;;17.30;99.90;;;;;;4979179;28;20057;-56
2023/09/23 11:09:25;;;;;;;6.03;4.50;;;17.30;99.90;;;;;;4994674;28;20388;-54
2023/09/23 11:11:51;;;;;;;8.43;5.03;;;17.50;99.90;;;;;;4999282;28;20069;-55
2023/09/23 11:14:20;;;;;;;9.80;5.68;;;17.60;99.90;;;;;;4998223;28;20092;-53
2023/09/23 11:16:46;;;;;;;7.65;4.13;;;17.70;99.90;;;;;;4998819;28;20415;-55
2023/09/23 11:19:12;;;;;;;6.78;3.13;;;17.90;99.90;;;;;;4992888;28;20046;-53
2023/09/23 11:21:42;;;;;;;5.88;2.78;;;17.90;99.90;;;;;;4983663;28;20073;-52
2023/09/23 11:24:08;;;;;;;6.13;2.80;;;17.80;99.90;;;;;;4989380;28;20400;-54
2023/09/23 11:26:41;;;;;;;6.30;2.55;;;17.70;99.90;;;;;;4991869;28;20054;-55
2023/09/23 11:29:10;;;;;;;5.47;3.22;;;17.50;99.90;;;;;;5000470;28;20073;-55
2023/09/23 11:31:35;;;;;;;6.90;3.55;;;17.30;99.90;;;;;;5003025;28;20046;-56
2023/09/23 11:34:01;;;;;;;5.82;3.58;;;17.10;99.90;;;;;;5004436;28;20046;-54
2023/09/23 11:36:28;;;;;;;7.18;3.80;;;17.00;99.90;;;;;;5004526;28;20057;-53
2023/09/23 11:38:53;;;;;;;8.52;4.38;;;16.90;99.90;;;;;;5003537;28;20057;-55
2023/09/23 11:41:19;;;;;;;5.97;4.07;;;16.80;99.90;;;;;;4999972;28;20034;-58
2023/09/23 11:43:46;;;;;;;6.57;4.07;;;16.70;99.90;;;;;;4985718;28;20073;-54
2023/09/23 11:46:14;;;;;;;9.57;5.05;;;16.70;99.90;;;;;;4985206;28;20076;-56
2023/09/23 11:48:41;;;;;;;7.35;4.38;;;16.60;99.90;;;;;;4983601;28;20461;-57
2023/09/23 11:51:07;;;;;;;8.70;4.43;;;16.60;99.90;;;;;;4983677;28;20109;-58
2023/09/23 11:53:35;;;;;;;6.35;4.30;;;16.60;99.90;;;;;;4984128;28;20097;-53
2023/09/23 11:56:01;;;;;;;7.53;4.30;;;16.70;99.90;;;;;;4983221;28;20084;-55
2023/09/23 11:58:28;;;;;;;6.43;4.50;;;16.80;99.90;;;;;;4985077;28;20054;-57
2023/09/23 12:00:54;;;;;;;7.65;4.35;;;16.70;99.90;;;;;;4984085;28;20053;-57
2023/09/23 12:03:20;;;;;;;6.47;3.10;;;16.70;99.90;;;;;;4984043;28;20034;-53
2023/09/23 12:05:46;;;;;;;6.65;3.45;;;16.70;99.90;;;;;;4983884;28;20042;-56
2023/09/23 12:08:11;;;;;;;5.60;3.67;;;16.70;99.90;;;;;;4984691;28;20428;-57
2023/09/23 12:10:37;;;;;;;5.93;3.28;;;16.60;99.90;;;;;;4983231;28;20049;-56
2023/09/23 12:13:05;;;;;;;4.95;3.45;;;16.50;99.90;;;;;;4983316;28;20496;-55
2023/09/23 12:15:31;;;;;;;;;;;16.60;99.90;;;;;;4984356;28;20424;-55
2023/09/23 12:17:56;;;;;;;;;;;16.70;99.90;;;;;;4982145;28;25087;-55
2023/09/23 12:20:22;;;;;;;;;;;16.90;99.90;;;;;;4982152;28;25183;-55
2023/09/23 12:22:48;;;;;;;;;;;17.00;99.90;;;;;;4981698;28;25133;-53
2023/09/23 12:25:14;;;;;;;;;;;17.00;99.90;;;;;;4981093;28;25080;-57
2023/09/23 12:27:40;;;;;;;;;;;17.00;99.90;;;;;;4977863;28;25091;-57
2023/09/23 12:30:06;;;;;;;;;;;17.00;99.90;;;;;;4976164;28;25142;-55
2023/09/23 12:32:33;;;;;;;;;;;17.00;99.90;;;;;;4977057;28;25101;-57
2023/09/23 12:34:58;;;;;;;;;;;17.10;99.90;;;;;;4976293;28;25084;-56
2023/09/23 12:37:27;;;;;;;;;;;16.80;99.90;;;;;;4982996;28;19984;-55
2023/09/23 12:39:52;;;;;;;;;;;16.60;99.90;;;;;;4973477;28;25069;-54
2023/09/23 12:42:18;;;;;;;;;;;16.60;99.90;;;;;;4977394;28;25083;-58
2023/09/23 12:44:43;;;;;;;;;;;16.40;99.90;;;;;;4976283;28;25053;-57